Time;durP1;ratioP1;P1;durP2;ratioP2;P2;SDS_P1;SDS_P2;PMS_P1;PMS_P2;Temp;Humidity;BMP_temperature;BMP_pressure;BME280_temperature;BME280_humidity;BME280_pressure;Samples;Min_cycle;Max_cycle;Signal;HPM_P1;HPM_P2
2022/11/27 07:48:19;;;;;;;4.93;3.50;;;-1.50;99.90;;;;;;5138770;27;20303;-79
2022/11/27 07:50:44;;;;;;;3.43;2.83;;;-1.40;99.90;;;;;;5137295;28;20443;-79
2022/11/27 07:53:10;;;;;;;3.47;2.53;;;-1.40;99.90;;;;;;5137334;28;20175;-79
2022/11/27 07:55:40;;;;;;;4.43;2.57;;;-1.30;99.90;;;;;;5139020;27;20629;-80
2022/11/27 07:58:07;;;;;;;5.13;2.53;;;-1.10;99.90;;;;;;5138679;27;20222;-80
2022/11/27 08:00:34;;;;;;;4.30;2.73;;;-0.90;99.90;;;;;;5138217;28;20421;-80
2022/11/27 08:03:00;;;;;;;4.33;3.57;;;-0.50;99.90;;;;;;5137950;28;20433;-83
2022/11/27 08:05:26;;;;;;;4.57;3.50;;;0.50;99.90;;;;;;5139468;28;20525;-82
2022/11/27 08:07:51;;;;;;;11.10;8.00;;;1.40;99.90;;;;;;5139569;28;20456;-83
2022/11/27 08:10:17;;;;;;;10.63;8.60;;;2.00;99.90;;;;;;5139185;28;20171;-82
2022/11/27 08:12:43;;;;;;;6.33;4.67;;;2.40;99.90;;;;;;5141867;28;20171;-82
2022/11/27 08:15:09;;;;;;;9.23;6.27;;;2.40;99.90;;;;;;5142364;28;20174;-82
2022/11/27 08:17:35;;;;;;;6.00;4.43;;;2.60;99.90;;;;;;5140355;28;20195;-82
2022/11/27 08:20:02;;;;;;;4.93;4.17;;;2.70;99.90;;;;;;5140398;28;20415;-81
2022/11/27 08:22:27;;;;;;;3.50;3.00;;;3.20;99.90;;;;;;5146202;28;20247;-81
2022/11/27 08:24:53;;;;;;;5.17;4.53;;;3.70;99.90;;;;;;5147188;28;20400;-81
2022/11/27 08:27:19;;;;;;;3.47;2.30;;;4.00;99.90;;;;;;5142604;28;20236;-81
2022/11/27 08:29:45;;;;;;;2.07;1.87;;;4.40;99.90;;;;;;5138396;28;20171;-80
2022/11/27 08:32:11;;;;;;;4.63;4.00;;;4.40;99.90;;;;;;5135311;28;20197;-80
2022/11/27 08:34:37;;;;;;;5.70;5.20;;;4.50;99.90;;;;;;5134832;28;20578;-80
2022/11/27 08:37:04;;;;;;;3.30;3.00;;;4.50;99.90;;;;;;5134769;28;20605;-80
2022/11/27 08:39:30;;;;;;;3.73;3.00;;;4.50;99.90;;;;;;5135776;28;20276;-80
2022/11/27 08:41:55;;;;;;;3.13;2.13;;;4.40;99.90;;;;;;5135969;28;20204;-80
2022/11/27 08:44:21;;;;;;;3.40;1.90;;;4.90;99.90;;;;;;5135596;28;20334;-80
2022/11/27 08:46:47;;;;;;;2.33;2.00;;;5.30;99.90;;;;;;5143608;27;20223;-80
2022/11/27 08:49:12;;;;;;;1.50;1.37;;;5.60;99.90;;;;;;5136341;28;20177;-80
2022/11/27 08:51:38;;;;;;;2.73;1.77;;;5.60;99.90;;;;;;5136152;28;20274;-80
2022/11/27 08:54:04;;;;;;;2.07;1.40;;;5.70;99.90;;;;;;5136129;28;20182;-80
2022/11/27 08:56:30;;;;;;;3.83;1.80;;;5.60;99.90;;;;;;5136812;28;20183;-80
2022/11/27 08:58:56;;;;;;;1.80;1.57;;;5.50;99.90;;;;;;5126985;28;20232;-80
2022/11/27 09:01:27;;;;;;;2.73;2.20;;;5.60;99.90;;;;;;5124214;28;20195;-80
2022/11/27 09:03:53;;;;;;;2.83;2.27;;;5.60;99.90;;;;;;5123597;28;20164;-80
2022/11/27 09:06:22;;;;;;;3.87;2.50;;;5.20;99.90;;;;;;5122985;28;20203;-80
2022/11/27 09:08:48;;;;;;;2.93;2.13;;;5.00;99.90;;;;;;5122172;28;20180;-80
2022/11/27 09:11:17;;;;;;;2.73;2.17;;;5.10;99.90;;;;;;5122341;28;20190;-80
2022/11/27 09:13:43;;;;;;;3.80;2.10;;;5.20;99.90;;;;;;5125560;28;20179;-80
2022/11/27 09:16:12;;;;;;;2.00;1.27;;;5.60;99.90;;;;;;5122985;28;20191;-80
2022/11/27 09:18:38;;;;;;;6.20;1.57;;;6.00;99.90;;;;;;5124086;28;20544;-80
2022/11/27 09:21:07;;;;;;;1.90;1.40;;;6.10;99.90;;;;;;5123207;28;20176;-80
2022/11/27 09:23:34;;;;;;;2.53;1.70;;;5.90;99.90;;;;;;5124067;28;20186;-80
2022/11/27 09:26:00;;;;;;;3.60;2.10;;;5.80;99.90;;;;;;5123449;28;20186;-80
2022/11/27 09:28:26;;;;;;;3.30;1.50;;;6.20;99.90;;;;;;5123379;28;20199;-80
2022/11/27 09:30:57;;;;;;;2.73;2.00;;;6.60;99.90;;;;;;5124015;28;20226;-80
2022/11/27 09:33:24;;;;;;;2.17;1.63;;;6.60;99.90;;;;;;5122254;28;20175;-80
2022/11/27 09:35:50;;;;;;;2.47;1.60;;;6.20;99.90;;;;;;5122109;28;20225;-80
2022/11/27 09:38:16;;;;;;;3.97;2.07;;;5.80;99.90;;;;;;5122137;28;20203;-80
2022/11/27 09:40:51;;;;;;;5.10;4.60;;;5.80;99.90;;;;;;5122110;28;20221;-80
2022/11/27 09:43:22;;;;;;;3.10;2.10;;;5.60;99.90;;;;;;5120410;28;20197;-80
2022/11/27 09:45:55;;;;;;;4.67;4.27;;;5.80;99.90;;;;;;5120031;28;20593;-80
2022/11/27 09:48:32;;;;;;;5.23;4.23;;;6.20;99.90;;;;;;5116909;28;20684;-80
2022/11/27 09:51:00;;;;;;;11.80;8.20;;;6.90;99.90;;;;;;5116094;28;20171;-80
2022/11/27 09:53:41;;;;;;;3.30;2.80;;;7.10;99.90;;;;;;5116317;28;20648;-81
2022/11/27 09:56:11;;;;;;;6.57;5.73;;;7.40;99.90;;;;;;5116906;28;20182;-80
2022/11/27 09:59:13;;;;;;;3.33;2.40;;;7.70;99.90;;;;;;5122537;28;20191;-81
2022/11/27 10:01:38;;;;;;;4.53;3.03;;;7.90;99.90;;;;;;5112510;28;20175;-80
2022/11/27 10:04:05;;;;;;;2.70;2.30;;;8.00;99.90;;;;;;5124298;28;20644;-81
2022/11/27 10:06:53;;;;;;;4.20;3.50;;;8.20;99.90;;;;;;5120950;28;20687;-80
2022/11/27 10:09:40;;;;;;;2.43;2.23;;;8.10;99.90;;;;;;5121299;28;20195;-81
2022/11/27 10:12:40;;;;;;;2.37;1.80;;;8.10;99.90;;;;;;5121922;28;20638;-81
2022/11/27 10:15:48;;;;;;;2.73;2.20;;;8.30;99.90;;;;;;5121971;28;20168;-80
2022/11/27 10:18:32;;;;;;;2.50;1.80;;;8.50;99.90;;;;;;5124306;28;20193;-80
2022/11/27 10:21:20;;;;;;;9.77;2.50;;;8.40;99.90;;;;;;5123494;28;20172;-80
2022/11/27 10:24:18;;;;;;;1.97;1.77;;;8.80;99.90;;;;;;5124899;28;20170;-81
2022/11/27 10:26:46;;;;;;;1.60;1.50;;;9.40;99.90;;;;;;5122535;28;20216;-81
2022/11/27 10:29:29;;;;;;;3.07;1.80;;;9.90;99.90;;;;;;5126004;28;20171;-81
2022/11/27 10:32:00;;;;;;;4.07;2.60;;;9.60;99.90;;;;;;5124263;28;20181;-80
2022/11/27 10:34:53;;;;;;;3.00;2.33;;;9.30;99.90;;;;;;5123600;28;20687;-81
2022/11/27 10:38:11;;;;;;;5.93;5.33;;;8.60;99.90;;;;;;5123249;28;20205;-81
2022/11/27 10:40:42;;;;;;;3.17;2.77;;;7.90;99.90;;;;;;5116208;28;20194;-81
2022/11/27 10:43:24;;;;;;;2.37;1.70;;;7.70;99.90;;;;;;5120926;28;20176;-80
2022/11/27 10:46:02;;;;;;;3.00;2.13;;;7.70;99.90;;;;;;5122569;28;20329;-79
2022/11/27 10:48:28;;;;;;;3.43;2.20;;;8.00;99.90;;;;;;5123201;28;20607;-80
2022/11/27 10:50:55;;;;;;;2.77;2.10;;;8.10;99.90;;;;;;5122325;28;20182;-80
2022/11/27 10:53:32;;;;;;;2.63;1.97;;;8.20;99.90;;;;;;5121818;28;20723;-80
2022/11/27 10:56:14;;;;;;;2.90;2.33;;;8.70;99.90;;;;;;5123269;28;20171;-81
2022/11/27 10:58:49;;;;;;;3.80;2.67;;;9.70;99.90;;;;;;5122766;28;20171;-80
2022/11/27 11:01:18;;;;;;;2.40;2.10;;;10.40;99.90;;;;;;5123261;28;20167;-82
2022/11/27 11:03:44;;;;;;;3.13;2.53;;;11.00;99.90;;;;;;5123575;28;20195;-81
2022/11/27 11:06:18;;;;;;;3.23;2.50;;;11.60;99.90;;;;;;5122560;28;20179;-80
2022/11/27 11:08:44;;;;;;;3.30;3.00;;;11.80;99.60;;;;;;5124216;28;20210;-80
2022/11/27 11:11:09;;;;;;;3.17;2.70;;;11.70;99.90;;;;;;5124361;28;20518;-81
2022/11/27 11:13:49;;;;;;;4.30;2.70;;;11.40;99.90;;;;;;5121835;28;20174;-81
2022/11/27 11:16:20;;;;;;;2.47;2.00;;;11.80;99.90;;;;;;5122046;28;20261;-80
2022/11/27 11:18:50;;;;;;;3.53;2.20;;;11.70;99.90;;;;;;5123031;28;20151;-81
2022/11/27 11:21:22;;;;;;;2.80;2.07;;;11.60;99.90;;;;;;5121958;28;20269;-81
2022/11/27 11:24:03;;;;;;;2.00;1.80;;;11.40;99.90;;;;;;5122497;28;20175;-81
2022/11/27 11:26:39;;;;;;;2.43;1.97;;;11.50;99.90;;;;;;5122839;28;20554;-81
2022/11/27 11:29:27;;;;;;;1.67;1.57;;;11.70;99.90;;;;;;5124046;28;20194;-81
2022/11/27 11:31:55;;;;;;;1.87;1.43;;;11.60;99.90;;;;;;5124576;28;20156;-81
2022/11/27 11:34:29;;;;;;;1.77;1.40;;;11.30;99.90;;;;;;5125140;28;20578;-81
2022/11/27 11:37:06;;;;;;;1.57;1.33;;;11.70;99.90;;;;;;5124158;28;20233;-82
2022/11/27 11:39:43;;;;;;;2.00;1.77;;;12.10;99.90;;;;;;5124849;28;20171;-82
2022/11/27 11:42:17;;;;;;;2.10;1.67;;;12.40;99.20;;;;;;5124897;28;20216;-81
2022/11/27 11:44:53;;;;;;;2.07;1.80;;;12.10;97.70;;;;;;5124879;28;20159;-81
2022/11/27 11:47:22;;;;;;;3.40;1.60;;;12.00;98.10;;;;;;5122759;28;20214;-81
2022/11/27 11:49:49;;;;;;;2.00;1.80;;;12.20;98.50;;;;;;5123917;28;20176;-81
2022/11/27 11:52:20;;;;;;;2.40;2.00;;;12.70;97.40;;;;;;5123950;28;20637;-81
2022/11/27 11:55:15;;;;;;;4.27;3.37;;;12.60;96.10;;;;;;5123738;28;20253;-81
2022/11/27 11:57:40;;;;;;;4.37;2.60;;;11.90;97.20;;;;;;5096768;28;20249;-83
2022/11/27 12:00:16;;;;;;;3.50;2.53;;;11.00;98.50;;;;;;5124148;28;20617;-82
2022/11/27 12:03:05;;;;;;;3.27;2.20;;;10.00;99.00;;;;;;5124089;28;20192;-83
2022/11/27 12:05:58;;;;;;;2.03;1.83;;;9.50;99.90;;;;;;5124485;28;20177;-82
2022/11/27 12:08:39;;;;;;;2.10;1.90;;;8.90;99.90;;;;;;5120455;28;20698;-81
2022/11/27 12:11:15;;;;;;;2.03;1.83;;;8.40;99.90;;;;;;5122323;28;20183;-81
2022/11/27 12:13:52;;;;;;;1.77;1.67;;;7.80;99.90;;;;;;5125718;28;20231;-82
2022/11/27 12:17:01;;;;;;;3.10;2.13;;;7.90;99.90;;;;;;5123143;28;20644;-81
2022/11/27 12:19:45;;;;;;;3.57;2.30;;;7.90;99.90;;;;;;5112012;28;20191;-80
2022/11/27 12:22:36;;;;;;;2.53;2.20;;;7.70;99.90;;;;;;5123052;28;20164;-80
2022/11/27 12:25:35;;;;;;;3.03;2.40;;;7.70;99.90;;;;;;5123693;28;20224;-80
2022/11/27 12:28:10;;;;;;;3.67;2.17;;;7.60;99.90;;;;;;5122807;28;20246;-81
2022/11/27 12:30:45;;;;;;;7.93;2.87;;;7.70;99.90;;;;;;5123689;28;20175;-80
2022/11/27 12:33:37;;;;;;;3.07;2.03;;;7.50;99.90;;;;;;5127363;28;20182;-80
2022/11/27 12:36:34;;;;;;;4.60;2.70;;;7.40;99.90;;;;;;5123346;28;20190;-80
2022/11/27 12:39:08;;;;;;;2.60;2.27;;;7.40;99.90;;;;;;5121562;28;20634;-80
2022/11/27 12:42:06;;;;;;;4.73;2.63;;;7.30;99.90;;;;;;5120915;28;20224;-80
2022/11/27 12:44:39;;;;;;;3.23;2.23;;;7.20;99.90;;;;;;5119081;28;20261;-80
2022/11/27 12:47:16;;;;;;;4.63;2.00;;;7.10;99.90;;;;;;5116280;28;20222;-80
2022/11/27 12:49:49;;;;;;;6.20;2.60;;;7.00;99.90;;;;;;5121460;28;20210;-79
2022/11/27 12:52:27;;;;;;;3.17;2.00;;;6.90;99.90;;;;;;5125286;28;20249;-80
2022/11/27 12:55:11;;;;;;;3.47;1.97;;;6.80;99.90;;;;;;5124237;28;20668;-82
2022/11/27 12:57:50;;;;;;;6.97;2.30;;;6.80;99.90;;;;;;5126263;28;20207;-80
2022/11/27 13:00:22;;;;;;;3.37;2.20;;;6.70;99.90;;;;;;5125460;28;20177;-80
2022/11/27 13:03:01;;;;;;;2.20;1.63;;;6.70;99.90;;;;;;5124097;28;20176;-80
2022/11/27 13:05:59;;;;;;;2.33;1.73;;;6.70;99.90;;;;;;5123339;28;20175;-81
2022/11/27 13:08:41;;;;;;;4.67;2.00;;;6.80;99.90;;;;;;5100103;28;20212;-80
2022/11/27 13:11:12;;;;;;;5.27;1.93;;;6.70;99.90;;;;;;5123581;28;20167;-80
2022/11/27 13:13:44;;;;;;;2.13;1.80;;;6.80;99.90;;;;;;5123824;28;20176;-80
2022/11/27 13:16:25;;;;;;;2.90;2.10;;;6.80;99.90;;;;;;5123709;28;20187;-80
2022/11/27 13:18:55;;;;;;;4.40;2.47;;;6.70;99.90;;;;;;5124056;28;20168;-80
2022/11/27 13:21:28;;;;;;;2.90;2.50;;;6.70;99.90;;;;;;5125685;28;20630;-80
2022/11/27 13:23:54;;;;;;;2.80;2.00;;;6.70;99.90;;;;;;5124864;28;20173;-80
2022/11/27 13:26:32;;;;;;;3.93;2.00;;;6.70;99.90;;;;;;5122849;28;20192;-80
2022/11/27 13:29:27;;;;;;;2.77;2.00;;;6.70;99.90;;;;;;5123310;28;20187;-80
2022/11/27 13:31:56;;;;;;;2.60;2.03;;;6.60;99.90;;;;;;5113221;28;20191;-81
2022/11/27 13:34:25;;;;;;;2.70;2.17;;;6.60;99.90;;;;;;5125376;28;20172;-79
2022/11/27 13:37:01;;;;;;;3.43;2.83;;;6.60;99.90;;;;;;5123205;28;20221;-81
2022/11/27 13:39:37;;;;;;;3.70;2.13;;;6.60;99.90;;;;;;5125302;28;20167;-80
2022/11/27 13:42:22;;;;;;;2.83;2.23;;;6.60;99.90;;;;;;5124213;28;20221;-81
2022/11/27 13:44:59;;;;;;;3.33;2.50;;;6.50;99.90;;;;;;5126465;28;20175;-81
2022/11/27 13:47:28;;;;;;;4.57;2.67;;;6.60;99.90;;;;;;5123578;28;20215;-81
2022/11/27 13:50:04;;;;;;;3.03;2.33;;;6.60;99.90;;;;;;5125367;28;20179;-81
2022/11/27 13:52:30;;;;;;;4.67;2.43;;;6.70;99.90;;;;;;5123995;28;20185;-81
2022/11/27 13:54:58;;;;;;;3.90;2.20;;;6.70;99.90;;;;;;5123027;28;20180;-81
2022/11/27 13:57:26;;;;;;;4.87;2.90;;;6.70;99.90;;;;;;5123540;28;20211;-81
2022/11/27 14:00:08;;;;;;;4.80;3.20;;;6.70;99.90;;;;;;5124647;28;20189;-81
2022/11/27 14:02:47;;;;;;;9.77;3.97;;;6.60;99.90;;;;;;5122360;28;20169;-80
2022/11/27 14:05:18;;;;;;;4.63;3.00;;;6.60;99.90;;;;;;5121202;28;20173;-79
2022/11/27 14:07:49;;;;;;;7.23;2.90;;;6.60;99.90;;;;;;5121573;28;20200;-80
2022/11/27 14:10:21;;;;;;;3.67;2.80;;;6.50;99.90;;;;;;5119577;28;20656;-79
2022/11/27 14:13:08;;;;;;;5.70;3.37;;;6.50;99.90;;;;;;5122054;28;20157;-80
2022/11/27 14:15:36;;;;;;;3.97;2.77;;;6.60;99.90;;;;;;5121611;28;20179;-80
2022/11/27 14:18:12;;;;;;;2.37;2.13;;;6.60;99.90;;;;;;5120873;28;20575;-81
2022/11/27 14:21:05;;;;;;;3.00;2.20;;;6.50;99.90;;;;;;5120840;28;20171;-81
2022/11/27 14:23:34;;;;;;;5.67;2.90;;;6.50;99.90;;;;;;5119608;28;20637;-81
2022/11/27 14:26:20;;;;;;;3.83;3.17;;;6.30;99.90;;;;;;5119877;28;20180;-81
2022/11/27 14:28:50;;;;;;;4.53;3.03;;;6.30;99.90;;;;;;5119579;28;20202;-80
2022/11/27 14:31:34;;;;;;;3.70;2.87;;;6.30;99.90;;;;;;5120348;28;20635;-80
2022/11/27 14:34:04;;;;;;;5.23;3.23;;;6.20;99.90;;;;;;5122435;28;20178;-81
2022/11/27 14:36:33;;;;;;;5.33;3.53;;;6.10;99.90;;;;;;5121000;28;20567;-80
2022/11/27 14:39:03;;;;;;;4.77;3.07;;;6.10;99.90;;;;;;5121523;28;20172;-83
2022/11/27 14:41:29;;;;;;;4.47;3.13;;;6.00;99.90;;;;;;5120851;28;20167;-82
2022/11/27 14:44:03;;;;;;;5.20;3.23;;;5.90;99.90;;;;;;5120767;28;20276;-81
2022/11/27 14:46:31;;;;;;;2.67;2.40;;;5.70;99.90;;;;;;5121799;28;20196;-80
2022/11/27 14:48:57;;;;;;;8.63;3.10;;;5.70;99.90;;;;;;5122099;28;20638;-80
2022/11/27 14:51:47;;;;;;;11.83;2.70;;;5.60;99.90;;;;;;5119849;28;20181;-80
2022/11/27 14:54:21;;;;;;;3.97;2.57;;;5.50;99.90;;;;;;5122151;28;20191;-80
2022/11/27 14:56:46;;;;;;;4.67;2.53;;;5.40;99.90;;;;;;5119207;28;20269;-81
2022/11/27 14:59:20;;;;;;;5.13;2.80;;;5.10;99.90;;;;;;5119773;28;20593;-81
2022/11/27 15:01:58;;;;;;;5.03;3.13;;;5.10;99.90;;;;;;5119182;28;20178;-81
2022/11/27 15:04:33;;;;;;;14.40;5.37;;;5.10;99.90;;;;;;5120092;28;20178;-81
2022/11/27 15:06:59;;;;;;;9.63;5.37;;;5.10;99.90;;;;;;5123270;28;20674;-81
2022/11/27 15:09:28;;;;;;;14.20;5.10;;;5.00;99.90;;;;;;5125632;28;20227;-81
2022/11/27 15:12:11;;;;;;;11.50;7.00;;;4.90;99.90;;;;;;5130619;28;20552;-81
2022/11/27 15:14:37;;;;;;;11.87;5.73;;;4.80;99.90;;;;;;5115023;28;20241;-81
2022/11/27 15:17:05;;;;;;;8.63;5.70;;;4.80;99.90;;;;;;5120206;28;20208;-81
2022/11/27 15:19:34;;;;;;;8.50;6.17;;;4.70;99.90;;;;;;5120643;28;20272;-81
2022/11/27 15:22:00;;;;;;;7.00;5.73;;;4.60;99.90;;;;;;5120701;28;20198;-81
2022/11/27 15:24:33;;;;;;;8.77;6.43;;;4.50;99.90;;;;;;5122362;28;20172;-81
2022/11/27 15:27:13;;;;;;;11.40;6.97;;;4.30;99.90;;;;;;5122640;28;20221;-81
2022/11/27 15:29:52;;;;;;;17.97;7.30;;;4.20;99.90;;;;;;5120032;28;20240;-82
2022/11/27 15:32:23;;;;;;;9.27;6.83;;;4.10;99.90;;;;;;5120534;28;20191;-82
2022/11/27 15:34:52;;;;;;;13.80;8.33;;;4.00;99.90;;;;;;5120709;28;20176;-82
2022/11/27 15:37:21;;;;;;;15.93;11.03;;;3.90;99.90;;;;;;5118740;28;20207;-81
2022/11/27 15:39:54;;;;;;;24.50;15.27;;;3.70;99.90;;;;;;5118717;28;20759;-82
2022/11/27 15:42:21;;;;;;;22.40;13.47;;;3.70;99.90;;;;;;5121638;28;20634;-83
2022/11/27 15:44:48;;;;;;;22.57;15.13;;;3.50;99.90;;;;;;5120040;28;20172;-81
2022/11/27 15:47:26;;;;;;;21.00;14.70;;;3.50;99.90;;;;;;5118768;28;20215;-82
2022/11/27 15:49:53;;;;;;;26.93;14.77;;;3.40;99.90;;;;;;5120723;28;20167;-82
2022/11/27 15:52:19;;;;;;;18.60;12.03;;;3.30;99.90;;;;;;5119451;28;20179;-81
2022/11/27 15:54:45;;;;;;;23.73;16.03;;;3.20;99.90;;;;;;5119796;28;20186;-81
2022/11/27 15:57:11;;;;;;;27.90;16.17;;;3.20;99.90;;;;;;5122162;28;20220;-81
2022/11/27 15:59:36;;;;;;;23.03;14.33;;;3.10;99.90;;;;;;5120277;28;20262;-81
2022/11/27 16:02:02;;;;;;;20.70;12.73;;;3.10;99.90;;;;;;5117548;28;20210;-81
2022/11/27 16:04:28;;;;;;;18.27;11.87;;;3.00;99.90;;;;;;5119744;28;20171;-81
2022/11/27 16:06:54;;;;;;;20.30;13.00;;;2.90;99.90;;;;;;5118782;28;20206;-83
2022/11/27 16:09:19;;;;;;;23.63;13.80;;;2.90;99.90;;;;;;5123989;28;20172;-81
2022/11/27 16:11:45;;;;;;;20.20;12.37;;;2.80;99.90;;;;;;5123958;28;20183;-82
2022/11/27 16:14:11;;;;;;;18.97;12.10;;;2.80;99.90;;;;;;5125044;28;20180;-82
2022/11/27 16:16:37;;;;;;;20.13;12.77;;;2.70;99.90;;;;;;5125526;28;20212;-82
2022/11/27 16:19:05;;;;;;;17.27;11.73;;;2.70;99.90;;;;;;5125199;28;20260;-83
2022/11/27 16:21:31;;;;;;;16.87;12.37;;;2.60;99.90;;;;;;5124612;28;20246;-82
2022/11/27 16:23:59;;;;;;;16.83;10.67;;;2.60;99.90;;;;;;5126739;28;20168;-82
2022/11/27 16:26:26;;;;;;;9.97;7.00;;;2.50;99.90;;;;;;5124308;28;20769;-81
2022/11/27 16:28:51;;;;;;;20.97;11.13;;;2.50;99.90;;;;;;5126581;28;20631;-82
2022/11/27 16:31:17;;;;;;;14.90;11.53;;;2.40;99.90;;;;;;5126311;28;20167;-81
2022/11/27 16:33:43;;;;;;;18.77;12.67;;;2.30;99.90;;;;;;5124456;28;20236;-82
2022/11/27 16:36:11;;;;;;;20.00;13.93;;;2.30;99.90;;;;;;5126302;28;20175;-81
2022/11/27 16:38:38;;;;;;;19.77;13.23;;;2.20;99.90;;;;;;5127323;28;20213;-82
2022/11/27 16:41:06;;;;;;;23.03;15.17;;;2.20;99.90;;;;;;5128912;28;20266;-82
2022/11/27 16:43:38;;;;;;;28.50;16.83;;;2.00;99.90;;;;;;5124543;28;20402;-81
2022/11/27 16:46:12;;;;;;;29.53;19.13;;;2.10;99.90;;;;;;5124639;28;20193;-81
2022/11/27 16:48:39;;;;;;;30.07;16.97;;;2.10;99.90;;;;;;5130077;28;20208;-81
2022/11/27 16:51:08;;;;;;;28.13;16.93;;;2.00;99.90;;;;;;5122953;28;20247;-81
2022/11/27 16:53:40;;;;;;;29.70;17.77;;;2.00;99.90;;;;;;5125901;28;20195;-82
2022/11/27 16:56:08;;;;;;;24.43;14.73;;;1.90;99.90;;;;;;5122705;28;20270;-81
2022/11/27 16:58:38;;;;;;;27.37;16.80;;;1.80;99.90;;;;;;5122357;28;20563;-81
2022/11/27 17:01:06;;;;;;;26.30;15.80;;;1.80;99.90;;;;;;5121825;28;20321;-81
2022/11/27 17:03:32;;;;;;;26.17;15.67;;;1.70;99.90;;;;;;5122850;28;20176;-81
2022/11/27 17:05:57;;;;;;;26.23;13.80;;;1.70;99.90;;;;;;5122036;28;20201;-81
2022/11/27 17:08:23;;;;;;;23.27;14.30;;;1.70;99.90;;;;;;5123317;28;20203;-82
2022/11/27 17:10:49;;;;;;;44.50;22.20;;;1.60;99.90;;;;;;5121887;28;20582;-82
2022/11/27 17:13:15;;;;;;;50.17;26.73;;;1.60;99.90;;;;;;5123028;28;20167;-82
2022/11/27 17:15:41;;;;;;;55.43;26.47;;;1.60;99.90;;;;;;5123829;28;20180;-82
2022/11/27 17:18:06;;;;;;;54.70;27.97;;;1.60;99.90;;;;;;5123989;28;20277;-82
2022/11/27 17:20:32;;;;;;;52.03;23.53;;;1.60;99.90;;;;;;5124100;28;20405;-82
2022/11/27 17:22:58;;;;;;;60.20;32.70;;;1.50;99.90;;;;;;5122830;28;20641;-82
2022/11/27 17:25:24;;;;;;;47.97;26.33;;;1.50;99.90;;;;;;5124220;28;20193;-81
2022/11/27 17:27:51;;;;;;;39.97;22.67;;;1.60;99.90;;;;;;5121958;28;20207;-82
2022/11/27 17:30:18;;;;;;;38.20;22.13;;;1.50;99.90;;;;;;5123540;28;20401;-82
2022/11/27 17:32:43;;;;;;;36.47;21.10;;;1.50;99.90;;;;;;5125016;28;20176;-82
2022/11/27 17:35:09;;;;;;;37.50;21.23;;;1.50;99.90;;;;;;5122344;28;20710;-81
2022/11/27 17:37:35;;;;;;;43.23;24.73;;;1.50;99.90;;;;;;5122845;28;20196;-81
2022/11/27 17:40:01;;;;;;;45.63;26.17;;;1.50;99.90;;;;;;5124963;28;20172;-81
2022/11/27 17:42:27;;;;;;;53.03;31.53;;;1.50;99.90;;;;;;5122991;28;20179;-81
2022/11/27 17:44:55;;;;;;;48.97;27.97;;;1.60;99.90;;;;;;5124941;28;20420;-81
2022/11/27 17:47:20;;;;;;;47.10;29.17;;;1.60;99.90;;;;;;5123525;28;20222;-81
2022/11/27 17:49:46;;;;;;;48.17;29.00;;;1.60;99.90;;;;;;5121898;28;20175;-81
2022/11/27 17:52:12;;;;;;;47.87;28.13;;;1.60;99.90;;;;;;5120828;28;20168;-81
2022/11/27 17:54:37;;;;;;;44.23;26.70;;;1.70;99.90;;;;;;5120986;28;20190;-82
2022/11/27 17:57:03;;;;;;;50.90;29.17;;;1.70;99.90;;;;;;5118266;28;20200;-82
2022/11/27 17:59:29;;;;;;;52.17;28.83;;;1.60;99.90;;;;;;5119095;28;20179;-81
2022/11/27 18:01:54;;;;;;;46.13;29.10;;;1.70;99.90;;;;;;5124530;28;20177;-81
2022/11/27 18:04:20;;;;;;;49.50;27.93;;;1.60;99.90;;;;;;5124204;28;20184;-81
2022/11/27 18:06:46;;;;;;;37.53;23.70;;;1.60;99.90;;;;;;5124273;28;20209;-81
2022/11/27 18:09:12;;;;;;;43.43;26.77;;;1.60;99.90;;;;;;5125807;28;20168;-81
